sensor_id;sensor_type;location;lat;lon;timestamp;P1;durP1;ratioP1;P2;durP2;ratioP2
75220;SDS011;63802;53.232;6.570;2023-07-16T00:01:31;7.90;;;2.20;;
75220;SDS011;63802;53.232;6.570;2023-07-16T00:03:57;7.88;;;2.22;;
75220;SDS011;63802;53.232;6.570;2023-07-16T00:06:22;12.95;;;2.30;;
75220;SDS011;63802;53.232;6.570;2023-07-16T00:08:48;9.93;;;2.20;;
75220;SDS011;63802;53.232;6.570;2023-07-16T00:11:14;9.82;;;1.98;;
75220;SDS011;63802;53.232;6.570;2023-07-16T00:13:39;6.72;;;1.88;;
75220;SDS011;63802;53.232;6.570;2023-07-16T00:16:11;6.88;;;2.47;;
75220;SDS011;63802;53.232;6.570;2023-07-16T00:18:37;9.40;;;2.20;;
75220;SDS011;63802;53.232;6.570;2023-07-16T00:21:02;5.90;;;2.20;;
75220;SDS011;63802;53.232;6.570;2023-07-16T00:23:28;10.93;;;1.90;;
75220;SDS011;63802;53.232;6.570;2023-07-16T00:25:54;7.82;;;2.38;;
75220;SDS011;63802;53.232;6.570;2023-07-16T00:28:19;7.38;;;2.40;;
75220;SDS011;63802;53.232;6.570;2023-07-16T00:30:45;7.28;;;2.50;;
75220;SDS011;63802;53.232;6.570;2023-07-16T00:33:11;6.60;;;1.83;;
75220;SDS011;63802;53.232;6.570;2023-07-16T00:35:36;7.57;;;2.38;;
75220;SDS011;63802;53.232;6.570;2023-07-16T00:38:02;7.68;;;2.05;;
75220;SDS011;63802;53.232;6.570;2023-07-16T00:40:27;8.68;;;2.85;;
75220;SDS011;63802;53.232;6.570;2023-07-16T00:42:53;8.95;;;2.10;;
75220;SDS011;63802;53.232;6.570;2023-07-16T00:45:18;10.48;;;2.50;;
75220;SDS011;63802;53.232;6.570;2023-07-16T00:47:44;7.25;;;2.28;;
75220;SDS011;63802;53.232;6.570;2023-07-16T00:50:10;9.98;;;3.40;;
75220;SDS011;63802;53.232;6.570;2023-07-16T00:52:36;9.77;;;2.35;;
75220;SDS011;63802;53.232;6.570;2023-07-16T00:55:02;6.95;;;2.17;;
75220;SDS011;63802;53.232;6.570;2023-07-16T00:57:28;9.00;;;2.13;;
75220;SDS011;63802;53.232;6.570;2023-07-16T00:59:54;8.63;;;2.25;;
75220;SDS011;63802;53.232;6.570;2023-07-16T01:02:20;7.57;;;2.30;;
75220;SDS011;63802;53.232;6.570;2023-07-16T01:04:46;6.22;;;2.03;;
75220;SDS011;63802;53.232;6.570;2023-07-16T01:07:14;8.13;;;2.30;;
75220;SDS011;63802;53.232;6.570;2023-07-16T01:09:42;11.02;;;2.10;;
75220;SDS011;63802;53.232;6.570;2023-07-16T01:12:09;13.60;;;2.40;;
75220;SDS011;63802;53.232;6.570;2023-07-16T01:14:36;10.00;;;2.67;;
75220;SDS011;63802;53.232;6.570;2023-07-16T01:17:04;7.78;;;2.58;;
75220;SDS011;63802;53.232;6.570;2023-07-16T01:19:31;9.95;;;2.45;;
75220;SDS011;63802;53.232;6.570;2023-07-16T01:30:04;11.05;;;2.40;;
75220;SDS011;63802;53.232;6.570;2023-07-16T01:32:31;7.43;;;2.53;;
75220;SDS011;63802;53.232;6.570;2023-07-16T01:34:58;9.25;;;2.25;;
75220;SDS011;63802;53.232;6.570;2023-07-16T01:37:24;10.40;;;2.78;;
75220;SDS011;63802;53.232;6.570;2023-07-16T01:39:50;11.65;;;3.03;;
75220;SDS011;63802;53.232;6.570;2023-07-16T01:42:15;8.32;;;2.65;;
75220;SDS011;63802;53.232;6.570;2023-07-16T01:44:41;9.00;;;2.40;;
75220;SDS011;63802;53.232;6.570;2023-07-16T01:49:50;8.93;;;2.65;;
75220;SDS011;63802;53.232;6.570;2023-07-16T01:52:15;8.68;;;2.67;;
75220;SDS011;63802;53.232;6.570;2023-07-16T01:54:41;9.98;;;2.17;;
75220;SDS011;63802;53.232;6.570;2023-07-16T01:57:06;7.78;;;2.17;;
75220;SDS011;63802;53.232;6.570;2023-07-16T01:59:32;9.82;;;2.47;;
75220;SDS011;63802;53.232;6.570;2023-07-16T02:01:57;4.97;;;1.95;;
75220;SDS011;63802;53.232;6.570;2023-07-16T02:04:23;7.28;;;2.40;;
75220;SDS011;63802;53.232;6.570;2023-07-16T02:06:48;10.07;;;2.42;;
75220;SDS011;63802;53.232;6.570;2023-07-16T02:09:14;10.45;;;2.33;;
75220;SDS011;63802;53.232;6.570;2023-07-16T02:11:39;4.85;;;2.00;;
75220;SDS011;63802;53.232;6.570;2023-07-16T02:14:05;8.07;;;2.28;;
75220;SDS011;63802;53.232;6.570;2023-07-16T02:16:30;9.98;;;2.55;;
75220;SDS011;63802;53.232;6.570;2023-07-16T02:18:56;10.63;;;2.15;;
75220;SDS011;63802;53.232;6.570;2023-07-16T02:21:21;7.28;;;1.90;;
75220;SDS011;63802;53.232;6.570;2023-07-16T02:23:46;6.47;;;2.22;;
75220;SDS011;63802;53.232;6.570;2023-07-16T02:26:12;13.07;;;2.13;;
75220;SDS011;63802;53.232;6.570;2023-07-16T02:28:37;7.90;;;2.17;;
75220;SDS011;63802;53.232;6.570;2023-07-16T02:31:04;10.32;;;2.42;;
75220;SDS011;63802;53.232;6.570;2023-07-16T02:33:30;7.03;;;2.15;;
75220;SDS011;63802;53.232;6.570;2023-07-16T02:35:55;6.70;;;2.72;;
75220;SDS011;63802;53.232;6.570;2023-07-16T02:38:21;6.22;;;2.50;;
75220;SDS011;63802;53.232;6.570;2023-07-16T02:40:47;8.02;;;2.40;;
75220;SDS011;63802;53.232;6.570;2023-07-16T02:43:13;7.40;;;2.30;;
75220;SDS011;63802;53.232;6.570;2023-07-16T02:45:40;9.25;;;3.13;;
75220;SDS011;63802;53.232;6.570;2023-07-16T02:48:06;7.72;;;2.42;;
75220;SDS011;63802;53.232;6.570;2023-07-16T02:50:35;9.90;;;2.85;;
75220;SDS011;63802;53.232;6.570;2023-07-16T02:53:03;6.38;;;2.70;;
75220;SDS011;63802;53.232;6.570;2023-07-16T02:55:30;10.98;;;4.45;;
75220;SDS011;63802;53.232;6.570;2023-07-16T02:57:55;8.50;;;2.85;;
75220;SDS011;63802;53.232;6.570;2023-07-16T03:00:21;9.05;;;2.90;;
75220;SDS011;63802;53.232;6.570;2023-07-16T03:02:47;9.32;;;3.42;;
75220;SDS011;63802;53.232;6.570;2023-07-16T03:05:14;6.28;;;2.70;;
75220;SDS011;63802;53.232;6.570;2023-07-16T03:07:40;6.75;;;2.65;;
75220;SDS011;63802;53.232;6.570;2023-07-16T03:10:05;12.23;;;3.35;;
75220;SDS011;63802;53.232;6.570;2023-07-16T03:12:31;6.88;;;2.80;;
75220;SDS011;63802;53.232;6.570;2023-07-16T03:14:57;7.57;;;2.83;;
75220;SDS011;63802;53.232;6.570;2023-07-16T03:17:22;13.40;;;3.05;;
75220;SDS011;63802;53.232;6.570;2023-07-16T03:19:48;10.63;;;3.33;;
75220;SDS011;63802;53.232;6.570;2023-07-16T03:22:13;9.13;;;2.75;;
75220;SDS011;63802;53.232;6.570;2023-07-16T03:24:39;6.60;;;3.22;;
75220;SDS011;63802;53.232;6.570;2023-07-16T03:27:05;9.75;;;3.15;;
75220;SDS011;63802;53.232;6.570;2023-07-16T03:29:32;8.73;;;3.33;;
75220;SDS011;63802;53.232;6.570;2023-07-16T03:31:58;7.85;;;2.92;;
75220;SDS011;63802;53.232;6.570;2023-07-16T03:34:23;9.23;;;2.85;;
75220;SDS011;63802;53.232;6.570;2023-07-16T03:36:49;10.68;;;3.08;;
75220;SDS011;63802;53.232;6.570;2023-07-16T03:39:14;8.68;;;2.85;;
75220;SDS011;63802;53.232;6.570;2023-07-16T03:41:40;7.50;;;3.10;;
75220;SDS011;63802;53.232;6.570;2023-07-16T03:44:05;9.77;;;2.97;;
75220;SDS011;63802;53.232;6.570;2023-07-16T03:46:31;11.75;;;2.88;;
75220;SDS011;63802;53.232;6.570;2023-07-16T03:48:56;8.52;;;3.20;;
75220;SDS011;63802;53.232;6.570;2023-07-16T03:51:24;9.73;;;2.90;;
75220;SDS011;63802;53.232;6.570;2023-07-16T03:53:50;12.38;;;3.03;;
75220;SDS011;63802;53.232;6.570;2023-07-16T03:56:15;8.88;;;3.40;;
75220;SDS011;63802;53.232;6.570;2023-07-16T03:58:41;10.65;;;3.28;;
75220;SDS011;63802;53.232;6.570;2023-07-16T04:01:06;12.57;;;3.63;;
75220;SDS011;63802;53.232;6.570;2023-07-16T04:03:32;11.32;;;3.75;;
75220;SDS011;63802;53.232;6.570;2023-07-16T04:06:03;12.43;;;3.33;;
75220;SDS011;63802;53.232;6.570;2023-07-16T04:08:30;13.48;;;3.25;;
75220;SDS011;63802;53.232;6.570;2023-07-16T04:10:56;9.63;;;3.53;;
75220;SDS011;63802;53.232;6.570;2023-07-16T04:13:21;11.63;;;3.28;;
75220;SDS011;63802;53.232;6.570;2023-07-16T04:15:46;15.45;;;3.45;;
75220;SDS011;63802;53.232;6.570;2023-07-16T04:18:12;7.70;;;2.85;;
75220;SDS011;63802;53.232;6.570;2023-07-16T04:20:37;13.80;;;3.35;;
75220;SDS011;63802;53.232;6.570;2023-07-16T04:23:03;11.45;;;3.38;;
75220;SDS011;63802;53.232;6.570;2023-07-16T04:25:29;13.35;;;3.65;;
75220;SDS011;63802;53.232;6.570;2023-07-16T04:27:55;11.52;;;3.38;;
75220;SDS011;63802;53.232;6.570;2023-07-16T04:30:21;12.35;;;3.65;;
75220;SDS011;63802;53.232;6.570;2023-07-16T04:32:46;9.82;;;3.88;;
75220;SDS011;63802;53.232;6.570;2023-07-16T04:35:12;9.32;;;3.65;;
75220;SDS011;63802;53.232;6.570;2023-07-16T04:37:38;10.73;;;3.70;;
75220;SDS011;63802;53.232;6.570;2023-07-16T04:40:04;12.35;;;3.60;;
75220;SDS011;63802;53.232;6.570;2023-07-16T04:42:30;8.88;;;3.22;;
75220;SDS011;63802;53.232;6.570;2023-07-16T04:44:58;10.10;;;3.55;;
75220;SDS011;63802;53.232;6.570;2023-07-16T04:47:23;10.75;;;3.35;;
75220;SDS011;63802;53.232;6.570;2023-07-16T04:49:49;8.60;;;3.55;;
75220;SDS011;63802;53.232;6.570;2023-07-16T04:52:14;13.32;;;3.60;;
75220;SDS011;63802;53.232;6.570;2023-07-16T04:54:40;9.77;;;3.63;;
75220;SDS011;63802;53.232;6.570;2023-07-16T04:57:06;12.70;;;3.63;;
75220;SDS011;63802;53.232;6.570;2023-07-16T04:59:32;10.07;;;3.85;;
75220;SDS011;63802;53.232;6.570;2023-07-16T05:01:58;13.15;;;3.67;;
75220;SDS011;63802;53.232;6.570;2023-07-16T05:04:24;8.93;;;2.97;;
75220;SDS011;63802;53.232;6.570;2023-07-16T05:06:49;11.73;;;4.15;;
75220;SDS011;63802;53.232;6.570;2023-07-16T05:09:15;10.35;;;3.47;;
75220;SDS011;63802;53.232;6.570;2023-07-16T05:11:40;13.13;;;4.35;;
75220;SDS011;63802;53.232;6.570;2023-07-16T05:14:06;12.93;;;3.65;;
75220;SDS011;63802;53.232;6.570;2023-07-16T05:16:31;11.02;;;4.28;;
75220;SDS011;63802;53.232;6.570;2023-07-16T05:18:57;13.43;;;3.65;;
75220;SDS011;63802;53.232;6.570;2023-07-16T05:21:22;9.95;;;3.92;;
75220;SDS011;63802;53.232;6.570;2023-07-16T05:23:48;12.00;;;3.22;;
75220;SDS011;63802;53.232;6.570;2023-07-16T05:26:13;10.38;;;4.00;;
75220;SDS011;63802;53.232;6.570;2023-07-16T05:28:39;10.77;;;3.75;;
75220;SDS011;63802;53.232;6.570;2023-07-16T05:31:07;9.73;;;3.60;;
75220;SDS011;63802;53.232;6.570;2023-07-16T05:33:33;10.48;;;3.22;;
75220;SDS011;63802;53.232;6.570;2023-07-16T05:36:02;10.07;;;4.05;;
75220;SDS011;63802;53.232;6.570;2023-07-16T05:38:27;9.25;;;3.40;;
75220;SDS011;63802;53.232;6.570;2023-07-16T05:40:53;10.65;;;3.33;;
75220;SDS011;63802;53.232;6.570;2023-07-16T05:43:18;14.32;;;3.38;;
75220;SDS011;63802;53.232;6.570;2023-07-16T05:45:44;9.95;;;3.30;;
75220;SDS011;63802;53.232;6.570;2023-07-16T05:48:09;11.30;;;3.28;;
75220;SDS011;63802;53.232;6.570;2023-07-16T05:50:35;20.95;;;3.60;;
75220;SDS011;63802;53.232;6.570;2023-07-16T05:53:00;13.13;;;3.53;;
75220;SDS011;63802;53.232;6.570;2023-07-16T05:55:26;8.98;;;3.30;;
75220;SDS011;63802;53.232;6.570;2023-07-16T05:57:52;9.57;;;3.30;;
75220;SDS011;63802;53.232;6.570;2023-07-16T06:00:18;8.10;;;3.15;;
75220;SDS011;63802;53.232;6.570;2023-07-16T06:02:43;12.77;;;3.20;;
75220;SDS011;63802;53.232;6.570;2023-07-16T06:05:09;6.50;;;3.08;;
75220;SDS011;63802;53.232;6.570;2023-07-16T06:07:34;13.75;;;3.60;;
75220;SDS011;63802;53.232;6.570;2023-07-16T06:10:00;8.57;;;3.20;;
75220;SDS011;63802;53.232;6.570;2023-07-16T06:12:26;8.27;;;2.58;;
75220;SDS011;63802;53.232;6.570;2023-07-16T06:14:51;9.32;;;3.13;;
75220;SDS011;63802;53.232;6.570;2023-07-16T06:17:17;10.32;;;2.75;;
75220;SDS011;63802;53.232;6.570;2023-07-16T06:19:42;9.55;;;2.83;;
75220;SDS011;63802;53.232;6.570;2023-07-16T06:22:08;9.15;;;3.03;;
75220;SDS011;63802;53.232;6.570;2023-07-16T06:24:34;7.50;;;2.97;;
75220;SDS011;63802;53.232;6.570;2023-07-16T06:27:00;9.88;;;3.38;;
75220;SDS011;63802;53.232;6.570;2023-07-16T06:29:25;20.08;;;3.85;;
75220;SDS011;63802;53.232;6.570;2023-07-16T06:31:54;10.23;;;3.30;;
75220;SDS011;63802;53.232;6.570;2023-07-16T06:34:21;6.50;;;2.70;;
75220;SDS011;63802;53.232;6.570;2023-07-16T06:36:47;7.50;;;3.08;;
75220;SDS011;63802;53.232;6.570;2023-07-16T06:39:12;13.23;;;3.60;;
75220;SDS011;63802;53.232;6.570;2023-07-16T06:41:38;10.30;;;3.50;;
75220;SDS011;63802;53.232;6.570;2023-07-16T06:44:04;7.13;;;3.20;;
75220;SDS011;63802;53.232;6.570;2023-07-16T06:46:29;13.60;;;3.83;;
75220;SDS011;63802;53.232;6.570;2023-07-16T06:48:55;10.82;;;3.20;;
75220;SDS011;63802;53.232;6.570;2023-07-16T06:51:20;13.00;;;4.05;;
75220;SDS011;63802;53.232;6.570;2023-07-16T06:53:46;9.93;;;4.07;;
75220;SDS011;63802;53.232;6.570;2023-07-16T06:56:12;11.73;;;3.70;;
75220;SDS011;63802;53.232;6.570;2023-07-16T06:58:37;10.38;;;3.65;;
75220;SDS011;63802;53.232;6.570;2023-07-16T07:01:03;11.48;;;4.05;;
75220;SDS011;63802;53.232;6.570;2023-07-16T07:03:29;15.93;;;4.05;;
75220;SDS011;63802;53.232;6.570;2023-07-16T07:05:54;11.82;;;3.60;;
75220;SDS011;63802;53.232;6.570;2023-07-16T07:08:20;10.40;;;3.65;;
75220;SDS011;63802;53.232;6.570;2023-07-16T07:10:46;10.27;;;3.60;;
75220;SDS011;63802;53.232;6.570;2023-07-16T07:13:13;14.75;;;4.07;;
75220;SDS011;63802;53.232;6.570;2023-07-16T07:15:39;9.90;;;3.60;;
75220;SDS011;63802;53.232;6.570;2023-07-16T07:18:06;7.63;;;3.45;;
75220;SDS011;63802;53.232;6.570;2023-07-16T07:20:32;10.80;;;3.72;;
75220;SDS011;63802;53.232;6.570;2023-07-16T07:22:57;9.27;;;3.45;;
75220;SDS011;63802;53.232;6.570;2023-07-16T07:27:52;14.15;;;3.60;;
75220;SDS011;63802;53.232;6.570;2023-07-16T07:30:17;9.32;;;3.40;;
75220;SDS011;63802;53.232;6.570;2023-07-16T07:32:43;13.05;;;3.95;;
75220;SDS011;63802;53.232;6.570;2023-07-16T07:35:08;10.35;;;3.70;;
75220;SDS011;63802;53.232;6.570;2023-07-16T07:37:34;8.88;;;3.70;;
75220;SDS011;63802;53.232;6.570;2023-07-16T07:39:59;9.60;;;4.20;;
75220;SDS011;63802;53.232;6.570;2023-07-16T07:42:25;13.15;;;3.85;;
75220;SDS011;63802;53.232;6.570;2023-07-16T07:44:51;13.07;;;4.00;;
75220;SDS011;63802;53.232;6.570;2023-07-16T07:47:17;9.60;;;3.85;;
75220;SDS011;63802;53.232;6.570;2023-07-16T07:49:43;6.28;;;3.22;;
75220;SDS011;63802;53.232;6.570;2023-07-16T07:52:08;11.25;;;3.78;;
75220;SDS011;63802;53.232;6.570;2023-07-16T07:54:33;10.10;;;3.88;;
75220;SDS011;63802;53.232;6.570;2023-07-16T07:57:02;15.57;;;3.78;;
75220;SDS011;63802;53.232;6.570;2023-07-16T07:59:29;10.57;;;3.78;;
75220;SDS011;63802;53.232;6.570;2023-07-16T08:01:55;12.95;;;3.63;;
75220;SDS011;63802;53.232;6.570;2023-07-16T08:04:21;14.43;;;4.00;;
75220;SDS011;63802;53.232;6.570;2023-07-16T08:06:48;8.50;;;3.78;;
75220;SDS011;63802;53.232;6.570;2023-07-16T08:09:14;13.30;;;3.50;;
75220;SDS011;63802;53.232;6.570;2023-07-16T08:11:40;8.60;;;3.72;;
75220;SDS011;63802;53.232;6.570;2023-07-16T08:14:05;7.47;;;3.35;;
75220;SDS011;63802;53.232;6.570;2023-07-16T08:16:31;9.95;;;4.07;;
75220;SDS011;63802;53.232;6.570;2023-07-16T08:18:56;8.25;;;3.30;;
75220;SDS011;63802;53.232;6.570;2023-07-16T08:21:22;9.73;;;4.00;;
75220;SDS011;63802;53.232;6.570;2023-07-16T08:23:51;8.48;;;3.50;;
75220;SDS011;63802;53.232;6.570;2023-07-16T08:26:16;10.70;;;3.38;;
75220;SDS011;63802;53.232;6.570;2023-07-16T08:28:42;11.48;;;3.63;;
75220;SDS011;63802;53.232;6.570;2023-07-16T08:31:09;11.73;;;3.65;;
75220;SDS011;63802;53.232;6.570;2023-07-16T08:33:38;10.25;;;4.05;;
75220;SDS011;63802;53.232;6.570;2023-07-16T08:36:04;7.90;;;3.88;;
75220;SDS011;63802;53.232;6.570;2023-07-16T08:38:30;11.18;;;4.38;;
75220;SDS011;63802;53.232;6.570;2023-07-16T08:40:55;9.75;;;4.45;;
75220;SDS011;63802;53.232;6.570;2023-07-16T08:43:21;12.93;;;4.10;;
75220;SDS011;63802;53.232;6.570;2023-07-16T08:45:47;8.07;;;3.83;;
75220;SDS011;63802;53.232;6.570;2023-07-16T08:48:14;11.43;;;4.03;;
75220;SDS011;63802;53.232;6.570;2023-07-16T08:50:45;11.43;;;4.22;;
75220;SDS011;63802;53.232;6.570;2023-07-16T08:53:15;12.50;;;4.18;;
75220;SDS011;63802;53.232;6.570;2023-07-16T08:55:57;13.55;;;4.03;;
75220;SDS011;63802;53.232;6.570;2023-07-16T08:58:23;9.38;;;3.88;;
75220;SDS011;63802;53.232;6.570;2023-07-16T09:00:49;10.40;;;4.45;;
75220;SDS011;63802;53.232;6.570;2023-07-16T09:03:16;10.65;;;3.70;;
75220;SDS011;63802;53.232;6.570;2023-07-16T09:05:44;8.15;;;3.70;;
75220;SDS011;63802;53.232;6.570;2023-07-16T09:08:10;9.82;;;3.67;;
75220;SDS011;63802;53.232;6.570;2023-07-16T09:10:37;11.95;;;4.03;;
75220;SDS011;63802;53.232;6.570;2023-07-16T09:13:02;11.35;;;3.95;;
75220;SDS011;63802;53.232;6.570;2023-07-16T09:15:29;11.38;;;3.45;;
75220;SDS011;63802;53.232;6.570;2023-07-16T09:17:55;10.65;;;3.85;;
75220;SDS011;63802;53.232;6.570;2023-07-16T09:20:21;12.35;;;3.38;;
75220;SDS011;63802;53.232;6.570;2023-07-16T09:22:50;9.48;;;3.47;;
75220;SDS011;63802;53.232;6.570;2023-07-16T09:25:18;8.80;;;3.55;;
75220;SDS011;63802;53.232;6.570;2023-07-16T09:27:43;7.10;;;3.53;;
75220;SDS011;63802;53.232;6.570;2023-07-16T09:30:14;11.18;;;3.55;;
75220;SDS011;63802;53.232;6.570;2023-07-16T09:32:40;9.95;;;3.90;;
75220;SDS011;63802;53.232;6.570;2023-07-16T09:35:15;8.57;;;4.38;;
75220;SDS011;63802;53.232;6.570;2023-07-16T09:37:42;9.05;;;3.67;;
75220;SDS011;63802;53.232;6.570;2023-07-16T09:40:10;11.05;;;3.88;;
75220;SDS011;63802;53.232;6.570;2023-07-16T09:42:37;8.00;;;3.22;;
75220;SDS011;63802;53.232;6.570;2023-07-16T09:45:07;10.65;;;3.70;;
75220;SDS011;63802;53.232;6.570;2023-07-16T09:47:42;10.90;;;3.90;;
75220;SDS011;63802;53.232;6.570;2023-07-16T09:50:08;8.68;;;3.58;;
75220;SDS011;63802;53.232;6.570;2023-07-16T09:52:34;12.43;;;3.67;;
75220;SDS011;63802;53.232;6.570;2023-07-16T09:55:00;10.52;;;4.00;;
75220;SDS011;63802;53.232;6.570;2023-07-16T09:57:28;9.73;;;3.70;;
75220;SDS011;63802;53.232;6.570;2023-07-16T09:59:58;8.50;;;3.50;;
75220;SDS011;63802;53.232;6.570;2023-07-16T10:02:29;11.52;;;3.67;;
75220;SDS011;63802;53.232;6.570;2023-07-16T10:04:55;10.05;;;3.88;;
75220;SDS011;63802;53.232;6.570;2023-07-16T10:07:23;10.07;;;3.53;;
75220;SDS011;63802;53.232;6.570;2023-07-16T10:09:54;7.40;;;3.47;;
75220;SDS011;63802;53.232;6.570;2023-07-16T10:12:22;10.02;;;3.40;;
75220;SDS011;63802;53.232;6.570;2023-07-16T10:17:15;7.38;;;3.45;;
75220;SDS011;63802;53.232;6.570;2023-07-16T10:20:06;7.60;;;3.38;;
75220;SDS011;63802;53.232;6.570;2023-07-16T10:22:38;9.27;;;3.83;;
75220;SDS011;63802;53.232;6.570;2023-07-16T10:27:42;10.65;;;3.42;;
75220;SDS011;63802;53.232;6.570;2023-07-16T10:30:09;14.60;;;3.85;;
75220;SDS011;63802;53.232;6.570;2023-07-16T10:32:35;11.07;;;3.67;;
75220;SDS011;63802;53.232;6.570;2023-07-16T10:35:01;9.50;;;3.22;;
75220;SDS011;63802;53.232;6.570;2023-07-16T10:37:29;9.63;;;3.47;;
75220;SDS011;63802;53.232;6.570;2023-07-16T10:39:56;8.57;;;3.67;;
75220;SDS011;63802;53.232;6.570;2023-07-16T10:42:23;9.05;;;3.97;;
75220;SDS011;63802;53.232;6.570;2023-07-16T10:44:50;8.95;;;3.55;;
75220;SDS011;63802;53.232;6.570;2023-07-16T10:49:54;8.18;;;3.42;;
75220;SDS011;63802;53.232;6.570;2023-07-16T10:52:22;11.07;;;3.72;;
75220;SDS011;63802;53.232;6.570;2023-07-16T10:54:49;10.13;;;3.75;;
75220;SDS011;63802;53.232;6.570;2023-07-16T10:57:22;7.68;;;3.47;;
75220;SDS011;63802;53.232;6.570;2023-07-16T10:59:50;7.88;;;3.50;;
75220;SDS011;63802;53.232;6.570;2023-07-16T11:02:18;7.75;;;3.47;;
75220;SDS011;63802;53.232;6.570;2023-07-16T11:04:45;7.90;;;3.85;;
75220;SDS011;63802;53.232;6.570;2023-07-16T11:07:12;9.15;;;3.70;;
75220;SDS011;63802;53.232;6.570;2023-07-16T11:09:46;7.57;;;3.30;;
75220;SDS011;63802;53.232;6.570;2023-07-16T11:12:14;6.78;;;3.33;;
75220;SDS011;63802;53.232;6.570;2023-07-16T11:14:49;9.52;;;3.72;;
75220;SDS011;63802;53.232;6.570;2023-07-16T11:17:16;9.23;;;3.50;;
75220;SDS011;63802;53.232;6.570;2023-07-16T11:19:45;9.00;;;3.70;;
75220;SDS011;63802;53.232;6.570;2023-07-16T11:22:12;8.27;;;3.28;;
75220;SDS011;63802;53.232;6.570;2023-07-16T11:24:39;7.05;;;3.47;;
75220;SDS011;63802;53.232;6.570;2023-07-16T11:27:06;9.70;;;3.67;;
75220;SDS011;63802;53.232;6.570;2023-07-16T11:29:38;7.10;;;3.25;;
75220;SDS011;63802;53.232;6.570;2023-07-16T11:32:04;8.52;;;3.47;;
75220;SDS011;63802;53.232;6.570;2023-07-16T11:34:30;6.07;;;3.05;;
75220;SDS011;63802;53.232;6.570;2023-07-16T11:37:06;6.95;;;3.00;;
75220;SDS011;63802;53.232;6.570;2023-07-16T11:39:35;8.30;;;3.20;;
75220;SDS011;63802;53.232;6.570;2023-07-16T11:42:02;10.52;;;3.40;;
75220;SDS011;63802;53.232;6.570;2023-07-16T11:44:36;7.07;;;3.33;;
75220;SDS011;63802;53.232;6.570;2023-07-16T11:47:02;7.78;;;3.22;;
75220;SDS011;63802;53.232;6.570;2023-07-16T11:49:31;5.60;;;3.00;;
75220;SDS011;63802;53.232;6.570;2023-07-16T11:51:57;8.65;;;3.22;;
75220;SDS011;63802;53.232;6.570;2023-07-16T11:54:23;8.85;;;3.28;;
75220;SDS011;63802;53.232;6.570;2023-07-16T11:56:49;12.55;;;3.92;;
75220;SDS011;63802;53.232;6.570;2023-07-16T11:59:15;9.27;;;3.10;;
75220;SDS011;63802;53.232;6.570;2023-07-16T12:01:45;10.55;;;3.38;;
75220;SDS011;63802;53.232;6.570;2023-07-16T12:04:12;8.30;;;3.08;;
75220;SDS011;63802;53.232;6.570;2023-07-16T12:06:37;10.27;;;3.63;;
75220;SDS011;63802;53.232;6.570;2023-07-16T12:09:03;11.07;;;3.80;;
75220;SDS011;63802;53.232;6.570;2023-07-16T12:11:29;11.68;;;3.92;;
75220;SDS011;63802;53.232;6.570;2023-07-16T12:13:54;8.90;;;4.00;;
75220;SDS011;63802;53.232;6.570;2023-07-16T12:16:19;12.63;;;4.35;;
75220;SDS011;63802;53.232;6.570;2023-07-16T12:18:45;9.43;;;3.95;;
75220;SDS011;63802;53.232;6.570;2023-07-16T12:21:11;13.38;;;4.05;;
75220;SDS011;63802;53.232;6.570;2023-07-16T12:23:39;8.95;;;3.58;;
75220;SDS011;63802;53.232;6.570;2023-07-16T12:26:04;8.77;;;4.00;;
75220;SDS011;63802;53.232;6.570;2023-07-16T12:28:30;9.35;;;3.85;;
75220;SDS011;63802;53.232;6.570;2023-07-16T12:30:56;12.63;;;4.45;;
75220;SDS011;63802;53.232;6.570;2023-07-16T12:33:21;13.05;;;4.80;;
75220;SDS011;63802;53.232;6.570;2023-07-16T12:35:47;12.60;;;4.95;;
75220;SDS011;63802;53.232;6.570;2023-07-16T12:38:12;11.38;;;4.60;;
75220;SDS011;63802;53.232;6.570;2023-07-16T12:40:38;11.75;;;4.60;;
75220;SDS011;63802;53.232;6.570;2023-07-16T12:43:06;13.90;;;4.80;;
75220;SDS011;63802;53.232;6.570;2023-07-16T12:45:32;15.77;;;4.13;;
75220;SDS011;63802;53.232;6.570;2023-07-16T12:47:57;11.07;;;4.07;;
75220;SDS011;63802;53.232;6.570;2023-07-16T12:50:23;11.95;;;4.53;;
75220;SDS011;63802;53.232;6.570;2023-07-16T12:52:51;11.25;;;3.90;;
75220;SDS011;63802;53.232;6.570;2023-07-16T12:55:17;8.25;;;3.72;;
75220;SDS011;63802;53.232;6.570;2023-07-16T12:57:42;8.45;;;4.07;;
75220;SDS011;63802;53.232;6.570;2023-07-16T13:00:08;8.40;;;3.70;;
75220;SDS011;63802;53.232;6.570;2023-07-16T13:02:35;10.32;;;4.00;;
75220;SDS011;63802;53.232;6.570;2023-07-16T13:05:01;11.48;;;4.35;;
75220;SDS011;63802;53.232;6.570;2023-07-16T13:07:28;12.38;;;3.97;;
75220;SDS011;63802;53.232;6.570;2023-07-16T13:09:54;14.27;;;4.40;;
75220;SDS011;63802;53.232;6.570;2023-07-16T13:12:20;9.52;;;3.60;;
75220;SDS011;63802;53.232;6.570;2023-07-16T13:14:45;7.40;;;3.55;;
75220;SDS011;63802;53.232;6.570;2023-07-16T13:17:11;7.68;;;3.65;;
75220;SDS011;63802;53.232;6.570;2023-07-16T13:19:36;9.18;;;3.25;;
75220;SDS011;63802;53.232;6.570;2023-07-16T13:22:01;9.82;;;3.55;;
75220;SDS011;63802;53.232;6.570;2023-07-16T13:24:27;8.10;;;2.90;;
75220;SDS011;63802;53.232;6.570;2023-07-16T13:26:53;7.88;;;2.90;;
75220;SDS011;63802;53.232;6.570;2023-07-16T13:29:18;9.63;;;3.00;;
75220;SDS011;63802;53.232;6.570;2023-07-16T13:31:44;9.90;;;3.00;;
75220;SDS011;63802;53.232;6.570;2023-07-16T13:34:10;6.18;;;2.78;;
75220;SDS011;63802;53.232;6.570;2023-07-16T13:36:35;8.57;;;3.55;;
75220;SDS011;63802;53.232;6.570;2023-07-16T13:39:01;7.70;;;2.90;;
75220;SDS011;63802;53.232;6.570;2023-07-16T13:41:26;10.05;;;2.70;;
75220;SDS011;63802;53.232;6.570;2023-07-16T13:43:52;5.68;;;2.20;;
75220;SDS011;63802;53.232;6.570;2023-07-16T13:46:18;11.02;;;2.45;;
75220;SDS011;63802;53.232;6.570;2023-07-16T13:48:43;13.02;;;2.75;;
75220;SDS011;63802;53.232;6.570;2023-07-16T13:51:09;6.72;;;2.25;;
75220;SDS011;63802;53.232;6.570;2023-07-16T13:53:34;6.43;;;2.28;;
75220;SDS011;63802;53.232;6.570;2023-07-16T13:55:59;8.50;;;2.05;;
75220;SDS011;63802;53.232;6.570;2023-07-16T13:58:25;10.70;;;2.13;;
75220;SDS011;63802;53.232;6.570;2023-07-16T14:00:50;8.70;;;1.98;;
75220;SDS011;63802;53.232;6.570;2023-07-16T14:03:16;8.38;;;2.10;;
75220;SDS011;63802;53.232;6.570;2023-07-16T14:05:42;10.95;;;2.13;;
75220;SDS011;63802;53.232;6.570;2023-07-16T14:08:07;10.52;;;2.38;;
75220;SDS011;63802;53.232;6.570;2023-07-16T14:10:33;6.75;;;2.08;;
75220;SDS011;63802;53.232;6.570;2023-07-16T14:12:59;8.60;;;2.15;;
75220;SDS011;63802;53.232;6.570;2023-07-16T14:15:27;9.47;;;2.30;;
75220;SDS011;63802;53.232;6.570;2023-07-16T14:17:52;8.65;;;2.20;;
75220;SDS011;63802;53.232;6.570;2023-07-16T14:20:18;7.47;;;1.95;;
75220;SDS011;63802;53.232;6.570;2023-07-16T14:22:44;7.80;;;1.70;;
75220;SDS011;63802;53.232;6.570;2023-07-16T14:25:10;9.85;;;2.50;;
75220;SDS011;63802;53.232;6.570;2023-07-16T14:27:35;10.13;;;2.00;;
75220;SDS011;63802;53.232;6.570;2023-07-16T14:30:01;8.55;;;2.08;;
75220;SDS011;63802;53.232;6.570;2023-07-16T14:32:27;8.70;;;2.20;;
75220;SDS011;63802;53.232;6.570;2023-07-16T14:34:54;15.88;;;2.28;;
75220;SDS011;63802;53.232;6.570;2023-07-16T14:37:19;6.55;;;2.05;;
75220;SDS011;63802;53.232;6.570;2023-07-16T14:39:45;8.80;;;2.08;;
75220;SDS011;63802;53.232;6.570;2023-07-16T14:42:10;8.75;;;1.70;;
75220;SDS011;63802;53.232;6.570;2023-07-16T14:44:36;8.65;;;1.63;;
75220;SDS011;63802;53.232;6.570;2023-07-16T14:47:01;6.18;;;1.27;;
75220;SDS011;63802;53.232;6.570;2023-07-16T14:49:29;7.10;;;1.67;;
75220;SDS011;63802;53.232;6.570;2023-07-16T14:51:54;10.75;;;1.83;;
75220;SDS011;63802;53.232;6.570;2023-07-16T14:54:20;14.48;;;2.20;;
75220;SDS011;63802;53.232;6.570;2023-07-16T14:56:45;11.82;;;2.08;;
75220;SDS011;63802;53.232;6.570;2023-07-16T14:59:11;9.73;;;2.17;;